sensor_id;sensor_type;location;lat;lon;timestamp;pressure;altitude;pressure_sealevel;temperature;humidity
13420;BME280;6781;58.440;15.470;2022-08-19T00:00:21;100668.56;;;18.17;100.00
13420;BME280;6781;58.440;15.470;2022-08-19T00:02:48;100612.69;;;17.93;100.00
13420;BME280;6781;58.440;15.470;2022-08-19T00:05:17;100517.88;;;17.32;100.00
13420;BME280;6781;58.440;15.470;2022-08-19T00:07:44;100490.03;;;17.23;100.00
13420;BME280;6781;58.440;15.470;2022-08-19T00:10:13;100566.00;;;17.72;100.00
13420;BME280;6781;58.440;15.470;2022-08-19T00:12:41;100565.81;;;17.73;100.00
13420;BME280;6781;58.440;15.470;2022-08-19T00:15:12;100696.34;;;18.51;100.00
13420;BME280;6781;58.440;15.470;2022-08-19T00:17:41;100463.34;;;17.11;100.00
13420;BME280;6781;58.440;15.470;2022-08-19T00:20:10;100489.38;;;17.29;100.00
13420;BME280;6781;58.440;15.470;2022-08-19T00:22:39;100499.53;;;17.32;100.00
13420;BME280;6781;58.440;15.470;2022-08-19T00:25:07;100481.34;;;17.22;100.00
13420;BME280;6781;58.440;15.470;2022-08-19T00:27:34;100632.44;;;18.19;100.00
13420;BME280;6781;58.440;15.470;2022-08-19T00:30:03;100581.19;;;17.93;100.00
13420;BME280;6781;58.440;15.470;2022-08-19T00:32:30;100548.63;;;17.71;100.00
13420;BME280;6781;58.440;15.470;2022-08-19T00:34:57;100683.88;;;18.53;100.00
13420;BME280;6781;58.440;15.470;2022-08-19T00:37:24;100613.78;;;18.06;100.00
13420;BME280;6781;58.440;15.470;2022-08-19T00:39:53;100671.44;;;18.39;100.00
13420;BME280;6781;58.440;15.470;2022-08-19T00:42:21;100695.25;;;18.37;100.00
13420;BME280;6781;58.440;15.470;2022-08-19T00:44:48;100684.31;;;18.17;100.00
13420;BME280;6781;58.440;15.470;2022-08-19T00:47:15;100643.72;;;17.81;100.00
13420;BME280;6781;58.440;15.470;2022-08-19T00:49:45;100610.91;;;17.77;100.00
13420;BME280;6781;58.440;15.470;2022-08-19T00:52:19;100721.34;;;18.39;100.00
13420;BME280;6781;58.440;15.470;2022-08-19T00:54:47;100619.28;;;17.80;100.00
13420;BME280;6781;58.440;15.470;2022-08-19T00:57:18;100667.06;;;18.23;100.00
13420;BME280;6781;58.440;15.470;2022-08-19T00:59:52;100683.00;;;18.21;100.00
13420;BME280;6781;58.440;15.470;2022-08-19T01:02:20;100663.28;;;18.26;100.00
13420;BME280;6781;58.440;15.470;2022-08-19T01:04:47;100660.66;;;18.26;100.00
13420;BME280;6781;58.440;15.470;2022-08-19T01:07:14;100635.94;;;18.04;100.00
13420;BME280;6781;58.440;15.470;2022-08-19T01:09:41;100607.09;;;17.96;100.00
13420;BME280;6781;58.440;15.470;2022-08-19T01:12:08;100582.38;;;17.74;100.00
13420;BME280;6781;58.440;15.470;2022-08-19T01:14:38;100573.03;;;17.71;100.00
13420;BME280;6781;58.440;15.470;2022-08-19T01:17:06;100725.22;;;18.59;100.00
13420;BME280;6781;58.440;15.470;2022-08-19T01:19:36;100488.88;;;17.26;100.00
13420;BME280;6781;58.440;15.470;2022-08-19T01:22:08;100625.44;;;18.04;100.00
13420;BME280;6781;58.440;15.470;2022-08-19T01:24:40;100624.28;;;18.06;100.00
13420;BME280;6781;58.440;15.470;2022-08-19T01:27:07;100569.94;;;17.68;100.00
13420;BME280;6781;58.440;15.470;2022-08-19T01:29:37;100468.09;;;17.16;100.00
13420;BME280;6781;58.440;15.470;2022-08-19T01:32:07;100706.34;;;18.56;100.00
13420;BME280;6781;58.440;15.470;2022-08-19T01:34:35;100600.91;;;17.80;100.00
13420;BME280;6781;58.440;15.470;2022-08-19T01:37:06;100626.25;;;18.04;100.00
13420;BME280;6781;58.440;15.470;2022-08-19T01:39:37;100614.47;;;18.00;100.00
13420;BME280;6781;58.440;15.470;2022-08-19T01:42:08;100570.09;;;17.66;100.00
13420;BME280;6781;58.440;15.470;2022-08-19T01:44:36;100682.63;;;18.33;100.00
13420;BME280;6781;58.440;15.470;2022-08-19T01:47:04;100579.75;;;17.82;100.00
13420;BME280;6781;58.440;15.470;2022-08-19T01:49:31;100713.72;;;18.68;100.00
13420;BME280;6781;58.440;15.470;2022-08-19T01:51:59;100702.88;;;18.71;100.00
13420;BME280;6781;58.440;15.470;2022-08-19T01:54:27;100626.88;;;18.23;100.00
13420;BME280;6781;58.440;15.470;2022-08-19T01:56:59;100643.41;;;18.31;100.00
13420;BME280;6781;58.440;15.470;2022-08-19T01:59:29;100702.19;;;18.77;100.00
13420;BME280;6781;58.440;15.470;2022-08-19T02:01:57;100573.16;;;17.86;100.00
13420;BME280;6781;58.440;15.470;2022-08-19T02:04:23;100636.69;;;18.29;100.00
13420;BME280;6781;58.440;15.470;2022-08-19T02:07:19;100616.28;;;17.92;100.00
13420;BME280;6781;58.440;15.470;2022-08-19T02:09:46;100660.00;;;18.24;100.00
13420;BME280;6781;58.440;15.470;2022-08-19T02:12:14;100524.69;;;17.49;100.00
13420;BME280;6781;58.440;15.470;2022-08-19T02:14:43;100667.88;;;18.32;100.00
13420;BME280;6781;58.440;15.470;2022-08-19T02:17:10;100602.66;;;17.96;100.00
13420;BME280;6781;58.440;15.470;2022-08-19T02:19:38;100609.56;;;17.97;100.00
13420;BME280;6781;58.440;15.470;2022-08-19T02:22:05;100549.94;;;17.58;100.00
13420;BME280;6781;58.440;15.470;2022-08-19T02:24:32;100673.91;;;18.40;100.00
13420;BME280;6781;58.440;15.470;2022-08-19T02:26:59;100708.47;;;18.68;100.00
13420;BME280;6781;58.440;15.470;2022-08-19T02:29:26;100749.78;;;18.91;100.00
13420;BME280;6781;58.440;15.470;2022-08-19T02:31:54;100539.09;;;17.70;100.00
13420;BME280;6781;58.440;15.470;2022-08-19T02:34:21;100753.88;;;18.93;100.00
13420;BME280;6781;58.440;15.470;2022-08-19T02:36:48;100701.25;;;18.70;100.00
13420;BME280;6781;58.440;15.470;2022-08-19T02:39:16;100727.66;;;18.77;100.00
13420;BME280;6781;58.440;15.470;2022-08-19T02:41:42;100618.50;;;18.19;100.00
13420;BME280;6781;58.440;15.470;2022-08-19T02:44:09;100641.63;;;18.24;100.00
13420;BME280;6781;58.440;15.470;2022-08-19T02:46:36;100609.34;;;18.15;100.00
13420;BME280;6781;58.440;15.470;2022-08-19T02:49:06;100675.00;;;18.54;100.00
13420;BME280;6781;58.440;15.470;2022-08-19T02:51:35;100754.41;;;18.80;100.00
13420;BME280;6781;58.440;15.470;2022-08-19T02:54:03;100536.66;;;17.60;100.00
13420;BME280;6781;58.440;15.470;2022-08-19T02:56:31;100612.47;;;18.10;100.00
13420;BME280;6781;58.440;15.470;2022-08-19T02:58:58;100731.66;;;18.65;100.00
13420;BME280;6781;58.440;15.470;2022-08-19T03:01:27;100771.28;;;18.94;100.00
13420;BME280;6781;58.440;15.470;2022-08-19T03:03:55;100691.09;;;18.51;100.00
13420;BME280;6781;58.440;15.470;2022-08-19T03:06:25;100720.50;;;18.46;100.00
13420;BME280;6781;58.440;15.470;2022-08-19T03:08:53;100591.56;;;17.70;100.00
13420;BME280;6781;58.440;15.470;2022-08-19T03:11:23;100595.00;;;17.62;100.00
13420;BME280;6781;58.440;15.470;2022-08-19T03:13:50;100694.59;;;18.43;100.00
13420;BME280;6781;58.440;15.470;2022-08-19T03:16:20;100680.34;;;18.30;100.00
13420;BME280;6781;58.440;15.470;2022-08-19T03:18:48;100645.59;;;18.11;100.00
13420;BME280;6781;58.440;15.470;2022-08-19T03:21:15;100628.25;;;17.94;100.00
13420;BME280;6781;58.440;15.470;2022-08-19T03:23:44;100644.34;;;17.91;100.00
13420;BME280;6781;58.440;15.470;2022-08-19T03:26:11;100814.53;;;18.83;100.00
13420;BME280;6781;58.440;15.470;2022-08-19T03:28:40;100701.53;;;18.20;100.00
13420;BME280;6781;58.440;15.470;2022-08-19T03:31:13;100798.75;;;18.83;100.00
13420;BME280;6781;58.440;15.470;2022-08-19T03:33:41;100653.19;;;17.98;100.00
13420;BME280;6781;58.440;15.470;2022-08-19T03:36:10;100572.41;;;17.45;100.00
13420;BME280;6781;58.440;15.470;2022-08-19T03:38:39;100678.13;;;17.86;100.00
13420;BME280;6781;58.440;15.470;2022-08-19T03:41:10;100615.84;;;17.39;100.00
13420;BME280;6781;58.440;15.470;2022-08-19T03:43:38;100868.13;;;18.66;100.00
13420;BME280;6781;58.440;15.470;2022-08-19T03:46:08;100732.75;;;17.91;100.00
13420;BME280;6781;58.440;15.470;2022-08-19T03:48:36;100854.66;;;18.69;100.00
13420;BME280;6781;58.440;15.470;2022-08-19T03:51:04;100824.44;;;18.49;100.00
13420;BME280;6781;58.440;15.470;2022-08-19T03:53:32;100851.34;;;18.59;100.00
13420;BME280;6781;58.440;15.470;2022-08-19T03:55:59;100790.66;;;18.21;100.00
13420;BME280;6781;58.440;15.470;2022-08-19T03:58:29;100676.81;;;17.49;100.00
13420;BME280;6781;58.440;15.470;2022-08-19T04:00:56;100703.38;;;17.54;100.00
13420;BME280;6781;58.440;15.470;2022-08-19T04:03:24;100799.19;;;18.24;100.00
13420;BME280;6781;58.440;15.470;2022-08-19T04:05:52;100777.53;;;17.89;100.00
13420;BME280;6781;58.440;15.470;2022-08-19T04:08:20;100739.13;;;17.55;100.00
13420;BME280;6781;58.440;15.470;2022-08-19T04:10:48;100736.81;;;17.44;100.00
13420;BME280;6781;58.440;15.470;2022-08-19T04:13:17;100865.31;;;18.27;100.00
13420;BME280;6781;58.440;15.470;2022-08-19T04:15:45;100807.06;;;17.99;100.00
13420;BME280;6781;58.440;15.470;2022-08-19T04:18:13;100816.91;;;18.05;100.00
13420;BME280;6781;58.440;15.470;2022-08-19T04:20:44;100722.72;;;17.62;100.00
13420;BME280;6781;58.440;15.470;2022-08-19T04:23:12;100789.34;;;18.01;100.00
13420;BME280;6781;58.440;15.470;2022-08-19T04:25:41;100829.38;;;18.28;100.00
13420;BME280;6781;58.440;15.470;2022-08-19T04:28:10;100753.75;;;17.82;100.00
13420;BME280;6781;58.440;15.470;2022-08-19T04:30:39;100726.38;;;17.77;100.00
13420;BME280;6781;58.440;15.470;2022-08-19T04:33:09;100728.00;;;17.78;100.00
13420;BME280;6781;58.440;15.470;2022-08-19T04:35:39;100804.94;;;18.11;100.00
13420;BME280;6781;58.440;15.470;2022-08-19T04:38:07;100745.06;;;17.74;100.00
13420;BME280;6781;58.440;15.470;2022-08-19T04:40:40;100893.72;;;18.56;100.00
13420;BME280;6781;58.440;15.470;2022-08-19T04:43:24;100852.03;;;18.20;100.00
13420;BME280;6781;58.440;15.470;2022-08-19T04:45:51;100773.84;;;17.49;100.00
13420;BME280;6781;58.440;15.470;2022-08-19T04:48:20;100831.00;;;17.80;100.00
13420;BME280;6781;58.440;15.470;2022-08-19T04:50:52;100821.13;;;17.66;100.00
13420;BME280;6781;58.440;15.470;2022-08-19T04:53:23;100925.91;;;18.34;100.00
13420;BME280;6781;58.440;15.470;2022-08-19T04:55:50;101037.31;;;18.90;100.00
13420;BME280;6781;58.440;15.470;2022-08-19T04:58:18;100841.81;;;17.69;100.00
13420;BME280;6781;58.440;15.470;2022-08-19T05:00:45;100827.81;;;17.60;100.00
13420;BME280;6781;58.440;15.470;2022-08-19T05:03:12;100912.94;;;18.32;100.00
13420;BME280;6781;58.440;15.470;2022-08-19T05:05:44;100940.34;;;18.46;100.00
13420;BME280;6781;58.440;15.470;2022-08-19T05:08:16;100929.53;;;18.49;100.00
13420;BME280;6781;58.440;15.470;2022-08-19T05:10:46;100934.16;;;18.63;100.00
13420;BME280;6781;58.440;15.470;2022-08-19T05:13:13;100905.22;;;18.47;100.00
13420;BME280;6781;58.440;15.470;2022-08-19T05:15:41;101006.22;;;19.09;100.00
13420;BME280;6781;58.440;15.470;2022-08-19T05:18:10;100806.06;;;17.76;100.00
13420;BME280;6781;58.440;15.470;2022-08-19T05:20:55;100950.06;;;18.62;100.00
13420;BME280;6781;58.440;15.470;2022-08-19T05:23:40;100809.50;;;17.68;100.00
13420;BME280;6781;58.440;15.470;2022-08-19T05:26:08;100809.66;;;17.75;100.00
13420;BME280;6781;58.440;15.470;2022-08-19T05:28:37;100807.38;;;17.72;100.00
13420;BME280;6781;58.440;15.470;2022-08-19T05:31:05;100784.75;;;17.79;100.00
13420;BME280;6781;58.440;15.470;2022-08-19T05:33:32;100853.66;;;18.38;100.00
13420;BME280;6781;58.440;15.470;2022-08-19T05:36:01;100843.31;;;18.28;100.00
13420;BME280;6781;58.440;15.470;2022-08-19T05:38:28;100847.91;;;18.42;100.00
13420;BME280;6781;58.440;15.470;2022-08-19T05:40:56;100788.69;;;18.07;100.00
13420;BME280;6781;58.440;15.470;2022-08-19T05:43:25;100781.47;;;18.09;100.00
13420;BME280;6781;58.440;15.470;2022-08-19T05:45:58;100953.38;;;19.35;100.00
13420;BME280;6781;58.440;15.470;2022-08-19T05:48:25;100754.91;;;17.96;100.00
13420;BME280;6781;58.440;15.470;2022-08-19T05:50:52;100775.06;;;18.12;100.00
13420;BME280;6781;58.440;15.470;2022-08-19T05:53:24;100788.19;;;18.28;100.00
13420;BME280;6781;58.440;15.470;2022-08-19T05:55:55;100745.03;;;18.23;100.00
13420;BME280;6781;58.440;15.470;2022-08-19T05:58:22;100836.88;;;18.88;100.00
13420;BME280;6781;58.440;15.470;2022-08-19T06:00:50;100863.00;;;19.20;100.00
13420;BME280;6781;58.440;15.470;2022-08-19T06:03:17;100744.03;;;18.32;100.00
13420;BME280;6781;58.440;15.470;2022-08-19T06:05:45;100819.13;;;18.81;100.00
13420;BME280;6781;58.440;15.470;2022-08-19T06:08:12;100752.22;;;18.37;100.00
13420;BME280;6781;58.440;15.470;2022-08-19T06:10:45;100815.66;;;18.89;100.00
13420;BME280;6781;58.440;15.470;2022-08-19T06:13:12;100739.75;;;18.31;100.00
13420;BME280;6781;58.440;15.470;2022-08-19T06:15:39;100757.44;;;18.53;100.00
13420;BME280;6781;58.440;15.470;2022-08-19T06:18:09;100936.13;;;19.80;100.00
13420;BME280;6781;58.440;15.470;2022-08-19T06:20:36;100798.59;;;19.16;100.00
13420;BME280;6781;58.440;15.470;2022-08-19T06:23:04;100723.19;;;18.85;100.00
13420;BME280;6781;58.440;15.470;2022-08-19T06:25:31;100794.00;;;19.18;100.00
13420;BME280;6781;58.440;15.470;2022-08-19T06:28:08;100710.25;;;18.76;100.00
13420;BME280;6781;58.440;15.470;2022-08-19T06:30:36;100729.69;;;18.98;100.00
13420;BME280;6781;58.440;15.470;2022-08-19T06:33:03;100717.50;;;19.05;100.00
13420;BME280;6781;58.440;15.470;2022-08-19T06:35:46;100713.69;;;19.07;100.00
13420;BME280;6781;58.440;15.470;2022-08-19T06:38:22;100718.53;;;19.18;100.00
13420;BME280;6781;58.440;15.470;2022-08-19T06:41:07;100902.00;;;20.40;100.00
13420;BME280;6781;58.440;15.470;2022-08-19T06:43:56;100701.53;;;19.29;100.00
13420;BME280;6781;58.440;15.470;2022-08-19T06:46:39;100673.31;;;19.23;100.00
13420;BME280;6781;58.440;15.470;2022-08-19T06:49:30;100702.13;;;19.39;100.00
13420;BME280;6781;58.440;15.470;2022-08-19T06:51:59;100678.69;;;19.30;100.00
13420;BME280;6781;58.440;15.470;2022-08-19T06:54:27;100662.44;;;19.26;100.00
13420;BME280;6781;58.440;15.470;2022-08-19T06:57:00;100649.94;;;19.28;100.00
13420;BME280;6781;58.440;15.470;2022-08-19T07:00:05;100667.47;;;19.59;100.00
13420;BME280;6781;58.440;15.470;2022-08-19T07:02:46;100621.50;;;19.46;100.00
13420;BME280;6781;58.440;15.470;2022-08-19T07:05:22;100720.16;;;20.26;100.00
13420;BME280;6781;58.440;15.470;2022-08-19T07:07:51;100590.47;;;19.42;100.00
13420;BME280;6781;58.440;15.470;2022-08-19T07:10:23;100563.13;;;19.28;100.00
13420;BME280;6781;58.440;15.470;2022-08-19T07:12:52;100640.94;;;20.12;100.00
13420;BME280;6781;58.440;15.470;2022-08-19T07:18:22;100596.63;;;20.16;100.00
13420;BME280;6781;58.440;15.470;2022-08-19T07:21:12;100560.75;;;19.86;100.00
13420;BME280;6781;58.440;15.470;2022-08-19T07:24:01;100613.31;;;20.38;100.00
13420;BME280;6781;58.440;15.470;2022-08-19T07:26:55;100765.47;;;21.46;100.00
13420;BME280;6781;58.440;15.470;2022-08-19T07:29:31;100571.25;;;20.30;100.00
13420;BME280;6781;58.440;15.470;2022-08-19T07:32:07;100573.78;;;20.53;100.00
13420;BME280;6781;58.440;15.470;2022-08-19T07:35:09;100520.25;;;20.52;100.00
13420;BME280;6781;58.440;15.470;2022-08-19T07:37:50;100533.50;;;20.80;100.00
13420;BME280;6781;58.440;15.470;2022-08-19T07:40:45;100538.59;;;20.88;100.00
13420;BME280;6781;58.440;15.470;2022-08-19T07:43:35;100538.00;;;21.14;100.00
13420;BME280;6781;58.440;15.470;2022-08-19T07:46:11;100711.34;;;22.33;100.00
13420;BME280;6781;58.440;15.470;2022-08-19T07:48:40;100511.81;;;21.12;100.00
13420;BME280;6781;58.440;15.470;2022-08-19T07:51:23;100514.16;;;21.22;100.00
13420;BME280;6781;58.440;15.470;2022-08-19T07:54:11;100485.13;;;21.22;100.00
13420;BME280;6781;58.440;15.470;2022-08-19T07:56:49;100481.22;;;21.46;100.00
13420;BME280;6781;58.440;15.470;2022-08-19T07:59:24;100502.06;;;21.69;100.00
13420;BME280;6781;58.440;15.470;2022-08-19T08:01:52;100506.63;;;21.88;100.00
13420;BME280;6781;58.440;15.470;2022-08-19T08:04:20;100584.91;;;22.44;100.00
13420;BME280;6781;58.440;15.470;2022-08-19T08:10:20;100492.16;;;22.32;100.00
13420;BME280;6781;58.440;15.470;2022-08-19T08:12:49;100488.28;;;22.54;100.00
13420;BME280;6781;58.440;15.470;2022-08-19T08:15:25;100569.97;;;23.30;100.00
13420;BME280;6781;58.440;15.470;2022-08-19T08:18:06;100549.38;;;23.38;100.00
13420;BME280;6781;58.440;15.470;2022-08-19T08:20:53;100527.00;;;23.34;100.00
13420;BME280;6781;58.440;15.470;2022-08-19T08:23:23;100448.88;;;22.86;100.00
13420;BME280;6781;58.440;15.470;2022-08-19T08:25:56;100462.47;;;23.22;100.00
13420;BME280;6781;58.440;15.470;2022-08-19T08:28:25;100482.00;;;23.21;100.00
13420;BME280;6781;58.440;15.470;2022-08-19T08:31:12;100606.00;;;24.35;100.00
13420;BME280;6781;58.440;15.470;2022-08-19T08:33:55;100451.22;;;23.40;100.00
13420;BME280;6781;58.440;15.470;2022-08-19T08:36:37;100522.13;;;24.02;100.00
13420;BME280;6781;58.440;15.470;2022-08-19T08:39:07;100652.19;;;25.04;100.00
13420;BME280;6781;58.440;15.470;2022-08-19T08:44:53;100674.84;;;25.38;100.00
13420;BME280;6781;58.440;15.470;2022-08-19T08:47:25;100453.91;;;24.23;100.00
13420;BME280;6781;58.440;15.470;2022-08-19T08:50:02;100465.53;;;24.53;100.00
13420;BME280;6781;58.440;15.470;2022-08-19T08:52:47;100510.09;;;25.01;100.00
13420;BME280;6781;58.440;15.470;2022-08-19T08:55:31;100427.03;;;24.94;100.00
13420;BME280;6781;58.440;15.470;2022-08-19T08:58:13;100641.69;;;26.08;100.00
13420;BME280;6781;58.440;15.470;2022-08-19T09:04:19;100431.31;;;24.95;100.00
13420;BME280;6781;58.440;15.470;2022-08-19T09:06:53;100407.97;;;24.79;100.00
13420;BME280;6781;58.440;15.470;2022-08-19T09:09:32;100480.31;;;25.17;100.00
13420;BME280;6781;58.440;15.470;2022-08-19T09:12:12;100539.09;;;25.64;100.00
13420;BME280;6781;58.440;15.470;2022-08-19T09:14:53;100626.75;;;26.44;100.00
13420;BME280;6781;58.440;15.470;2022-08-19T09:17:38;100425.91;;;25.45;100.00
13420;BME280;6781;58.440;15.470;2022-08-19T09:26:50;100540.38;;;26.28;100.00
13420;BME280;6781;58.440;15.470;2022-08-19T09:29:31;100408.63;;;25.54;100.00
13420;BME280;6781;58.440;15.470;2022-08-19T09:31:58;100451.50;;;25.76;100.00
13420;BME280;6781;58.440;15.470;2022-08-19T09:34:41;100431.19;;;25.81;100.00
13420;BME280;6781;58.440;15.470;2022-08-19T09:43:52;100470.19;;;26.94;100.00
13420;BME280;6781;58.440;15.470;2022-08-19T09:46:22;100428.63;;;26.93;100.00
13420;BME280;6781;58.440;15.470;2022-08-19T09:49:03;100516.13;;;28.00;100.00
13420;BME280;6781;58.440;15.470;2022-08-19T09:51:32;100428.72;;;27.73;100.00
13420;BME280;6781;58.440;15.470;2022-08-19T09:54:01;100401.66;;;27.53;100.00
13420;BME280;6781;58.440;15.470;2022-08-19T09:56:47;100431.03;;;27.98;100.00
13420;BME280;6781;58.440;15.470;2022-08-19T09:59:52;100416.63;;;27.99;100.00
13420;BME280;6781;58.440;15.470;2022-08-19T10:02:26;100378.38;;;28.39;100.00
13420;BME280;6781;58.440;15.470;2022-08-19T10:04:54;100391.63;;;28.67;100.00
13420;BME280;6781;58.440;15.470;2022-08-19T10:07:38;100385.84;;;28.92;98.68
13420;BME280;6781;58.440;15.470;2022-08-19T10:10:08;100393.38;;;28.95;98.72
13420;BME280;6781;58.440;15.470;2022-08-19T10:12:39;100492.72;;;29.53;97.79
13420;BME280;6781;58.440;15.470;2022-08-19T10:15:28;100387.66;;;29.08;91.06
13420;BME280;6781;58.440;15.470;2022-08-19T10:17:56;100367.97;;;28.76;91.12
13420;BME280;6781;58.440;15.470;2022-08-19T10:20:25;100401.09;;;29.13;92.37
13420;BME280;6781;58.440;15.470;2022-08-19T10:22:57;100384.78;;;28.93;91.19
13420;BME280;6781;58.440;15.470;2022-08-19T10:25:25;100380.31;;;29.21;86.19
13420;BME280;6781;58.440;15.470;2022-08-19T10:28:06;100377.50;;;29.54;84.93
13420;BME280;6781;58.440;15.470;2022-08-19T10:34:08;100397.19;;;29.97;82.91
13420;BME280;6781;58.440;15.470;2022-08-19T10:36:49;100374.06;;;29.86;83.21
13420;BME280;6781;58.440;15.470;2022-08-19T10:39:29;100557.59;;;31.26;80.48
13420;BME280;6781;58.440;15.470;2022-08-19T10:41:57;100504.75;;;31.22;80.02
13420;BME280;6781;58.440;15.470;2022-08-19T10:44:25;100495.66;;;30.81;81.36
13420;BME280;6781;58.440;15.470;2022-08-19T10:46:55;100543.75;;;30.97;75.97
13420;BME280;6781;58.440;15.470;2022-08-19T10:49:24;100542.78;;;30.50;79.27
13420;BME280;6781;58.440;15.470;2022-08-19T10:51:51;100368.28;;;29.67;77.17
13420;BME280;6781;58.440;15.470;2022-08-19T10:54:36;100439.84;;;29.82;77.88
13420;BME280;6781;58.440;15.470;2022-08-19T10:57:16;100468.41;;;29.76;80.47
13420;BME280;6781;58.440;15.470;2022-08-19T10:59:55;100376.59;;;29.22;83.26
13420;BME280;6781;58.440;15.470;2022-08-19T11:02:35;100350.75;;;29.05;79.08
13420;BME280;6781;58.440;15.470;2022-08-19T11:11:34;100459.81;;;29.30;79.49
13420;BME280;6781;58.440;15.470;2022-08-19T11:14:13;100427.25;;;29.11;77.31
13420;BME280;6781;58.440;15.470;2022-08-19T11:16:54;100421.69;;;28.96;83.48
13420;BME280;6781;58.440;15.470;2022-08-19T11:19:37;100524.69;;;29.64;83.07
13420;BME280;6781;58.440;15.470;2022-08-19T11:22:18;100355.25;;;28.44;82.36
13420;BME280;6781;58.440;15.470;2022-08-19T11:25:09;100351.16;;;28.59;86.51
13420;BME280;6781;58.440;15.470;2022-08-19T11:40:44;100337.13;;;28.85;78.16
13420;BME280;6781;58.440;15.470;2022-08-19T11:43:26;100505.09;;;30.02;77.19
13420;BME280;6781;58.440;15.470;2022-08-19T11:45:59;100348.88;;;29.06;79.26
13420;BME280;6781;58.440;15.470;2022-08-19T11:48:41;100307.25;;;28.88;75.71
13420;BME280;6781;58.440;15.470;2022-08-19T11:51:11;100319.00;;;28.87;72.40
13420;BME280;6781;58.440;15.470;2022-08-19T11:53:56;100344.91;;;29.08;77.59
13420;BME280;6781;58.440;15.470;2022-08-19T12:03:19;100319.25;;;29.07;72.05
13420;BME280;6781;58.440;15.470;2022-08-19T12:05:49;100310.72;;;29.10;70.96
13420;BME280;6781;58.440;15.470;2022-08-19T12:08:32;100504.22;;;30.51;73.89
13420;BME280;6781;58.440;15.470;2022-08-19T12:11:22;100293.59;;;29.33;68.22
13420;BME280;6781;58.440;15.470;2022-08-19T12:14:03;100294.88;;;29.85;67.09
13420;BME280;6781;58.440;15.470;2022-08-19T12:16:45;100290.91;;;29.92;63.18
13420;BME280;6781;58.440;15.470;2022-08-19T12:32:13;100282.72;;;31.03;56.75
13420;BME280;6781;58.440;15.470;2022-08-19T12:34:42;100366.06;;;32.10;56.91
13420;BME280;6781;58.440;15.470;2022-08-19T12:37:29;100260.81;;;31.37;53.50
13420;BME280;6781;58.440;15.470;2022-08-19T12:40:13;100222.72;;;31.45;51.56
13420;BME280;6781;58.440;15.470;2022-08-19T12:42:56;100218.44;;;31.59;50.46
13420;BME280;6781;58.440;15.470;2022-08-19T12:45:37;100303.50;;;31.89;50.14
13420;BME280;6781;58.440;15.470;2022-08-19T12:51:30;100205.00;;;31.90;49.58
13420;BME280;6781;58.440;15.470;2022-08-19T12:53:59;100239.34;;;32.03;50.04
13420;BME280;6781;58.440;15.470;2022-08-19T12:56:27;100412.09;;;33.09;49.88
13420;BME280;6781;58.440;15.470;2022-08-19T12:59:01;100240.44;;;31.92;50.30
13420;BME280;6781;58.440;15.470;2022-08-19T13:01:33;100245.81;;;31.97;50.99
13420;BME280;6781;58.440;15.470;2022-08-19T13:04:14;100222.44;;;32.02;48.70
13420;BME280;6781;58.440;15.470;2022-08-19T13:07:16;100315.47;;;32.68;50.47
13420;BME280;6781;58.440;15.470;2022-08-19T13:09:45;100230.50;;;31.87;50.50
13420;BME280;6781;58.440;15.470;2022-08-19T13:12:28;100424.84;;;33.47;52.58
13420;BME280;6781;58.440;15.470;2022-08-19T13:15:10;100222.13;;;32.19;48.58
13420;BME280;6781;58.440;15.470;2022-08-19T13:17:54;100379.31;;;33.02;49.16
13420;BME280;6781;58.440;15.470;2022-08-19T13:20:42;100210.78;;;32.43;50.49
13420;BME280;6781;58.440;15.470;2022-08-19T13:23:48;100189.31;;;32.38;49.76
13420;BME280;6781;58.440;15.470;2022-08-19T13:26:48;100380.38;;;33.60;50.17
13420;BME280;6781;58.440;15.470;2022-08-19T13:29:30;100210.13;;;32.76;49.04
13420;BME280;6781;58.440;15.470;2022-08-19T13:32:14;100191.78;;;32.88;48.11
13420;BME280;6781;58.440;15.470;2022-08-19T13:34:59;100294.84;;;33.91;46.26
13420;BME280;6781;58.440;15.470;2022-08-19T13:37:26;100204.31;;;33.37;48.35
13420;BME280;6781;58.440;15.470;2022-08-19T13:40:24;100290.56;;;34.43;47.72
13420;BME280;6781;58.440;15.470;2022-08-19T13:43:04;100196.28;;;33.32;47.50
13420;BME280;6781;58.440;15.470;2022-08-19T13:45:33;100171.03;;;32.45;47.28
13420;BME280;6781;58.440;15.470;2022-08-19T13:48:02;100370.63;;;33.20;47.37
13420;BME280;6781;58.440;15.470;2022-08-19T13:50:33;100318.09;;;32.93;46.06
13420;BME280;6781;58.440;15.470;2022-08-19T13:53:01;100253.13;;;32.66;50.44
13420;BME280;6781;58.440;15.470;2022-08-19T13:55:31;100375.88;;;33.50;49.44
13420;BME280;6781;58.440;15.470;2022-08-19T13:57:59;100359.56;;;32.62;49.55
13420;BME280;6781;58.440;15.470;2022-08-19T14:00:28;100341.75;;;32.91;50.23
13420;BME280;6781;58.440;15.470;2022-08-19T14:02:56;100294.88;;;32.38;49.45
13420;BME280;6781;58.440;15.470;2022-08-19T14:05:25;100275.81;;;32.29;50.98
13420;BME280;6781;58.440;15.470;2022-08-19T14:07:52;100245.81;;;31.56;51.78
13420;BME280;6781;58.440;15.470;2022-08-19T14:10:19;100328.72;;;32.14;51.38
13420;BME280;6781;58.440;15.470;2022-08-19T14:12:48;100351.00;;;31.89;53.21
13420;BME280;6781;58.440;15.470;2022-08-19T14:15:15;100374.03;;;31.59;54.54
13420;BME280;6781;58.440;15.470;2022-08-19T14:17:43;100355.56;;;30.90;54.88
13420;BME280;6781;58.440;15.470;2022-08-19T14:20:13;100341.34;;;30.85;56.18
13420;BME280;6781;58.440;15.470;2022-08-19T14:22:42;100349.56;;;30.68;56.00
13420;BME280;6781;58.440;15.470;2022-08-19T14:25:11;100387.09;;;30.73;57.67